sensor_id;sensor_type;location;lat;lon;timestamp;temperature;humidity
55365;DHT22;41245;45.384;20.390;2023-02-01T00:01:50;153.80;2252.80
55365;DHT22;41245;45.384;20.390;2023-02-01T00:04:16;153.80;2252.80
55365;DHT22;41245;45.384;20.390;2023-02-01T00:06:42;153.80;2252.80
55365;DHT22;41245;45.384;20.390;2023-02-01T00:09:07;153.80;2252.80
55365;DHT22;41245;45.384;20.390;2023-02-01T00:11:33;153.80;2252.80
55365;DHT22;41245;45.384;20.390;2023-02-01T00:13:59;153.80;2252.80
55365;DHT22;41245;45.384;20.390;2023-02-01T00:16:27;153.70;2252.80
55365;DHT22;41245;45.384;20.390;2023-02-01T00:19:01;153.80;2252.80
55365;DHT22;41245;45.384;20.390;2023-02-01T00:21:27;153.80;2252.80
55365;DHT22;41245;45.384;20.390;2023-02-01T00:23:53;153.70;2252.80
55365;DHT22;41245;45.384;20.390;2023-02-01T00:29:01;153.80;2252.80
55365;DHT22;41245;45.384;20.390;2023-02-01T00:31:27;153.70;2252.80
55365;DHT22;41245;45.384;20.390;2023-02-01T00:33:52;153.60;2252.80
55365;DHT22;41245;45.384;20.390;2023-02-01T00:36:18;153.60;2252.80
55365;DHT22;41245;45.384;20.390;2023-02-01T00:38:44;153.60;2252.80
55365;DHT22;41245;45.384;20.390;2023-02-01T00:41:18;153.60;2252.80
55365;DHT22;41245;45.384;20.390;2023-02-01T00:43:45;153.70;2252.80
55365;DHT22;41245;45.384;20.390;2023-02-01T00:46:12;153.70;2252.80
55365;DHT22;41245;45.384;20.390;2023-02-01T00:48:38;153.80;2252.80
55365;DHT22;41245;45.384;20.390;2023-02-01T00:51:07;153.80;2252.80
55365;DHT22;41245;45.384;20.390;2023-02-01T00:53:33;153.80;2252.80
55365;DHT22;41245;45.384;20.390;2023-02-01T00:55:59;153.90;2252.80
55365;DHT22;41245;45.384;20.390;2023-02-01T00:58:25;153.90;2252.80
55365;DHT22;41245;45.384;20.390;2023-02-01T01:01:06;153.90;2252.80
55365;DHT22;41245;45.384;20.390;2023-02-01T01:03:33;153.90;2252.80
55365;DHT22;41245;45.384;20.390;2023-02-01T01:06:01;154.00;2252.80
55365;DHT22;41245;45.384;20.390;2023-02-01T01:08:27;154.00;2252.80
55365;DHT22;41245;45.384;20.390;2023-02-01T01:10:53;154.10;2252.80
55365;DHT22;41245;45.384;20.390;2023-02-01T01:13:19;154.00;2252.80
55365;DHT22;41245;45.384;20.390;2023-02-01T01:15:44;154.10;2252.80
55365;DHT22;41245;45.384;20.390;2023-02-01T01:18:10;154.00;2252.80
55365;DHT22;41245;45.384;20.390;2023-02-01T01:20:38;154.20;2252.80
55365;DHT22;41245;45.384;20.390;2023-02-01T01:23:07;154.10;2252.80
55365;DHT22;41245;45.384;20.390;2023-02-01T01:25:37;154.10;2252.80
55365;DHT22;41245;45.384;20.390;2023-02-01T01:28:04;154.20;2252.80
55365;DHT22;41245;45.384;20.390;2023-02-01T01:30:29;154.20;2252.80
55365;DHT22;41245;45.384;20.390;2023-02-01T01:32:55;154.10;2252.80
55365;DHT22;41245;45.384;20.390;2023-02-01T01:35:21;154.10;2252.80
55365;DHT22;41245;45.384;20.390;2023-02-01T01:37:46;154.20;2252.80
55365;DHT22;41245;45.384;20.390;2023-02-01T01:40:12;154.20;2252.80
55365;DHT22;41245;45.384;20.390;2023-02-01T01:42:39;154.10;2252.80
55365;DHT22;41245;45.384;20.390;2023-02-01T01:47:50;154.00;2252.80
55365;DHT22;41245;45.384;20.390;2023-02-01T01:50:19;154.00;2252.80
55365;DHT22;41245;45.384;20.390;2023-02-01T01:52:49;154.20;2252.80
55365;DHT22;41245;45.384;20.390;2023-02-01T01:55:18;154.10;2252.80
55365;DHT22;41245;45.384;20.390;2023-02-01T01:57:50;154.10;2252.80
55365;DHT22;41245;45.384;20.390;2023-02-01T02:00:19;153.90;2252.80
55365;DHT22;41245;45.384;20.390;2023-02-01T02:02:53;154.00;2252.80
55365;DHT22;41245;45.384;20.390;2023-02-01T02:05:20;154.00;2252.80
55365;DHT22;41245;45.384;20.390;2023-02-01T02:07:49;154.00;2252.80
55365;DHT22;41245;45.384;20.390;2023-02-01T02:10:16;154.20;2252.80
55365;DHT22;41245;45.384;20.390;2023-02-01T02:12:44;154.20;2252.80
55365;DHT22;41245;45.384;20.390;2023-02-01T02:15:13;154.20;2252.80
55365;DHT22;41245;45.384;20.390;2023-02-01T02:18:03;154.20;2252.80
55365;DHT22;41245;45.384;20.390;2023-02-01T02:43:02;154.20;2252.80
55365;DHT22;41245;45.384;20.390;2023-02-01T02:46:03;154.20;2252.80
55365;DHT22;41245;45.384;20.390;2023-02-01T02:48:54;154.20;2252.80
55365;DHT22;41245;45.384;20.390;2023-02-01T02:51:29;154.20;2252.80
55365;DHT22;41245;45.384;20.390;2023-02-01T02:54:20;154.20;2252.80
55365;DHT22;41245;45.384;20.390;2023-02-01T02:57:08;154.20;2252.80
55365;DHT22;41245;45.384;20.390;2023-02-01T02:59:53;154.20;2252.80
55365;DHT22;41245;45.384;20.390;2023-02-01T03:02:39;154.20;2252.80
55365;DHT22;41245;45.384;20.390;2023-02-01T03:05:24;154.30;2252.80
55365;DHT22;41245;45.384;20.390;2023-02-01T03:10:40;154.30;2252.80
55365;DHT22;41245;45.384;20.390;2023-02-01T03:16:22;154.30;2252.80
55365;DHT22;41245;45.384;20.390;2023-02-01T03:18:56;154.30;2252.80
55365;DHT22;41245;45.384;20.390;2023-02-01T03:21:41;154.40;2252.80
55365;DHT22;41245;45.384;20.390;2023-02-01T03:24:14;179.20;2252.80
55365;DHT22;41245;45.384;20.390;2023-02-01T03:26:49;154.20;2252.80
55365;DHT22;41245;45.384;20.390;2023-02-01T03:29:21;154.20;2252.80
55365;DHT22;41245;45.384;20.390;2023-02-01T03:31:47;154.30;2252.80
55365;DHT22;41245;45.384;20.390;2023-02-01T03:34:13;154.40;2252.80
55365;DHT22;41245;45.384;20.390;2023-02-01T03:36:48;154.50;2252.80
55365;DHT22;41245;45.384;20.390;2023-02-01T03:41:50;154.50;2252.80
55365;DHT22;41245;45.384;20.390;2023-02-01T03:47:21;154.50;2252.80
55365;DHT22;41245;45.384;20.390;2023-02-01T03:49:59;154.40;2252.80
55365;DHT22;41245;45.384;20.390;2023-02-01T03:52:39;154.20;2252.80
55365;DHT22;41245;45.384;20.390;2023-02-01T03:55:07;154.00;2252.80
55365;DHT22;41245;45.384;20.390;2023-02-01T03:57:37;154.00;2252.80
55365;DHT22;41245;45.384;20.390;2023-02-01T04:00:07;153.90;2252.80
55365;DHT22;41245;45.384;20.390;2023-02-01T04:02:33;153.90;2252.80
55365;DHT22;41245;45.384;20.390;2023-02-01T04:04:59;154.10;2252.80
55365;DHT22;41245;45.384;20.390;2023-02-01T04:07:25;154.20;2252.80
55365;DHT22;41245;45.384;20.390;2023-02-01T04:09:51;154.20;2252.80
55365;DHT22;41245;45.384;20.390;2023-02-01T04:12:16;154.20;2252.80
55365;DHT22;41245;45.384;20.390;2023-02-01T04:14:42;154.30;2252.80
55365;DHT22;41245;45.384;20.390;2023-02-01T04:17:08;154.30;2252.80
55365;DHT22;41245;45.384;20.390;2023-02-01T04:19:33;154.20;2252.80
55365;DHT22;41245;45.384;20.390;2023-02-01T04:21:59;154.20;2252.80
55365;DHT22;41245;45.384;20.390;2023-02-01T04:24:24;154.20;2252.80
55365;DHT22;41245;45.384;20.390;2023-02-01T04:26:50;154.20;2252.80
55365;DHT22;41245;45.384;20.390;2023-02-01T04:29:16;154.20;2252.80
55365;DHT22;41245;45.384;20.390;2023-02-01T04:31:41;154.10;2252.80
55365;DHT22;41245;45.384;20.390;2023-02-01T04:34:07;154.00;2252.80
55365;DHT22;41245;45.384;20.390;2023-02-01T04:36:33;154.00;2252.80
55365;DHT22;41245;45.384;20.390;2023-02-01T04:38:58;154.00;2252.80
55365;DHT22;41245;45.384;20.390;2023-02-01T04:41:24;154.00;2252.80
55365;DHT22;41245;45.384;20.390;2023-02-01T04:43:50;154.00;2252.80
55365;DHT22;41245;45.384;20.390;2023-02-01T04:46:18;153.80;2252.80
55365;DHT22;41245;45.384;20.390;2023-02-01T04:48:44;154.00;2252.80
55365;DHT22;41245;45.384;20.390;2023-02-01T04:51:09;154.10;2252.80
55365;DHT22;41245;45.384;20.390;2023-02-01T04:53:35;154.00;2252.80
55365;DHT22;41245;45.384;20.390;2023-02-01T04:56:01;154.10;2252.80
55365;DHT22;41245;45.384;20.390;2023-02-01T04:58:27;154.20;2252.80
55365;DHT22;41245;45.384;20.390;2023-02-01T05:00:52;154.20;2252.80
55365;DHT22;41245;45.384;20.390;2023-02-01T05:03:18;154.20;2252.80
55365;DHT22;41245;45.384;20.390;2023-02-01T05:05:44;154.20;2252.80
55365;DHT22;41245;45.384;20.390;2023-02-01T05:08:10;154.30;2252.80
55365;DHT22;41245;45.384;20.390;2023-02-01T05:10:35;154.30;2252.80
55365;DHT22;41245;45.384;20.390;2023-02-01T05:13:01;154.40;2252.80
55365;DHT22;41245;45.384;20.390;2023-02-01T05:15:45;154.30;2252.80
55365;DHT22;41245;45.384;20.390;2023-02-01T05:18:12;154.30;2252.80
55365;DHT22;41245;45.384;20.390;2023-02-01T05:20:37;154.30;2252.80
55365;DHT22;41245;45.384;20.390;2023-02-01T05:23:03;154.30;2252.80
55365;DHT22;41245;45.384;20.390;2023-02-01T05:25:29;154.30;2252.80
55365;DHT22;41245;45.384;20.390;2023-02-01T05:27:55;154.30;2252.80
55365;DHT22;41245;45.384;20.390;2023-02-01T05:30:20;154.30;2252.80
55365;DHT22;41245;45.384;20.390;2023-02-01T05:32:50;154.20;2252.80
55365;DHT22;41245;45.384;20.390;2023-02-01T05:35:15;154.20;2252.80
55365;DHT22;41245;45.384;20.390;2023-02-01T05:37:41;154.20;2252.80
55365;DHT22;41245;45.384;20.390;2023-02-01T05:40:07;154.20;2252.80
55365;DHT22;41245;45.384;20.390;2023-02-01T05:42:33;154.20;2252.80
55365;DHT22;41245;45.384;20.390;2023-02-01T05:44:59;154.20;2252.80
55365;DHT22;41245;45.384;20.390;2023-02-01T05:47:24;154.20;2252.80
55365;DHT22;41245;45.384;20.390;2023-02-01T05:49:50;154.20;2252.80
55365;DHT22;41245;45.384;20.390;2023-02-01T05:52:16;154.10;2252.80
55365;DHT22;41245;45.384;20.390;2023-02-01T05:54:45;154.10;2252.80
55365;DHT22;41245;45.384;20.390;2023-02-01T05:57:12;154.00;2252.80
55365;DHT22;41245;45.384;20.390;2023-02-01T05:59:38;153.90;2252.80
55365;DHT22;41245;45.384;20.390;2023-02-01T06:02:07;154.00;2252.80
55365;DHT22;41245;45.384;20.390;2023-02-01T06:04:32;154.00;2252.80
55365;DHT22;41245;45.384;20.390;2023-02-01T06:06:58;154.00;2252.80
55365;DHT22;41245;45.384;20.390;2023-02-01T06:09:24;154.10;2252.80
55365;DHT22;41245;45.384;20.390;2023-02-01T06:11:49;154.00;2252.80
55365;DHT22;41245;45.384;20.390;2023-02-01T06:14:15;154.00;2252.80
55365;DHT22;41245;45.384;20.390;2023-02-01T06:16:41;154.00;2252.80
55365;DHT22;41245;45.384;20.390;2023-02-01T06:19:06;153.90;2252.80
55365;DHT22;41245;45.384;20.390;2023-02-01T06:21:32;153.90;2252.80
55365;DHT22;41245;45.384;20.390;2023-02-01T06:23:58;153.90;2252.80
55365;DHT22;41245;45.384;20.390;2023-02-01T06:26:25;153.90;2252.80
55365;DHT22;41245;45.384;20.390;2023-02-01T06:28:50;153.80;2252.80
55365;DHT22;41245;45.384;20.390;2023-02-01T06:31:16;153.70;2252.80
55365;DHT22;41245;45.384;20.390;2023-02-01T06:33:42;153.80;2252.80
55365;DHT22;41245;45.384;20.390;2023-02-01T06:36:10;153.80;2252.80
55365;DHT22;41245;45.384;20.390;2023-02-01T06:38:37;153.80;2252.80
55365;DHT22;41245;45.384;20.390;2023-02-01T06:41:04;153.60;2252.80
55365;DHT22;41245;45.384;20.390;2023-02-01T06:43:30;128.90;2252.80
55365;DHT22;41245;45.384;20.390;2023-02-01T06:46:02;128.80;2252.80
55365;DHT22;41245;45.384;20.390;2023-02-01T06:48:29;128.90;2252.80
55365;DHT22;41245;45.384;20.390;2023-02-01T06:50:54;153.60;2252.80
55365;DHT22;41245;45.384;20.390;2023-02-01T06:53:20;153.60;2252.80
55365;DHT22;41245;45.384;20.390;2023-02-01T06:56:00;153.60;2252.80
55365;DHT22;41245;45.384;20.390;2023-02-01T06:58:32;128.90;2252.80
55365;DHT22;41245;45.384;20.390;2023-02-01T07:01:04;153.60;2252.80
55365;DHT22;41245;45.384;20.390;2023-02-01T07:03:30;153.90;2252.80
55365;DHT22;41245;45.384;20.390;2023-02-01T07:05:56;153.90;2252.80
55365;DHT22;41245;45.384;20.390;2023-02-01T07:08:29;154.10;2252.80
55365;DHT22;41245;45.384;20.390;2023-02-01T07:10:55;154.20;2252.80
55365;DHT22;41245;45.384;20.390;2023-02-01T07:13:21;154.30;2252.80
55365;DHT22;41245;45.384;20.390;2023-02-01T07:15:46;154.30;2252.80
55365;DHT22;41245;45.384;20.390;2023-02-01T07:18:13;154.40;2252.80
55365;DHT22;41245;45.384;20.390;2023-02-01T07:20:40;154.40;2252.80
55365;DHT22;41245;45.384;20.390;2023-02-01T07:23:05;154.30;2252.80
55365;DHT22;41245;45.384;20.390;2023-02-01T07:25:31;154.30;2252.80
55365;DHT22;41245;45.384;20.390;2023-02-01T07:27:57;154.20;2252.80
55365;DHT22;41245;45.384;20.390;2023-02-01T07:30:23;154.20;2252.80
55365;DHT22;41245;45.384;20.390;2023-02-01T07:32:49;154.20;2252.80
55365;DHT22;41245;45.384;20.390;2023-02-01T07:35:14;154.20;2252.80
55365;DHT22;41245;45.384;20.390;2023-02-01T07:37:40;154.10;2252.80
55365;DHT22;41245;45.384;20.390;2023-02-01T07:40:06;154.10;2252.80
55365;DHT22;41245;45.384;20.390;2023-02-01T07:42:33;154.10;2252.80
55365;DHT22;41245;45.384;20.390;2023-02-01T07:44:59;154.10;2252.80
55365;DHT22;41245;45.384;20.390;2023-02-01T07:47:24;154.10;2252.80
55365;DHT22;41245;45.384;20.390;2023-02-01T07:49:50;154.20;2252.80
55365;DHT22;41245;45.384;20.390;2023-02-01T07:52:16;154.20;2252.80
55365;DHT22;41245;45.384;20.390;2023-02-01T07:54:41;154.20;2252.80
55365;DHT22;41245;45.384;20.390;2023-02-01T07:57:07;154.40;2252.80
55365;DHT22;41245;45.384;20.390;2023-02-01T07:59:34;154.50;2252.80
55365;DHT22;41245;45.384;20.390;2023-02-01T08:02:00;179.20;2252.80
55365;DHT22;41245;45.384;20.390;2023-02-01T08:04:25;179.30;2252.80
55365;DHT22;41245;45.384;20.390;2023-02-01T08:06:51;179.40;2252.80
55365;DHT22;41245;45.384;20.390;2023-02-01T08:09:16;179.50;2252.80
55365;DHT22;41245;45.384;20.390;2023-02-01T08:11:42;179.70;2252.80
55365;DHT22;41245;45.384;20.390;2023-02-01T08:14:08;179.80;2252.80
55365;DHT22;41245;45.384;20.390;2023-02-01T08:16:34;179.80;2252.80
55365;DHT22;41245;45.384;20.390;2023-02-01T08:19:01;180.00;2252.80
55365;DHT22;41245;45.384;20.390;2023-02-01T08:21:28;180.10;2252.80
55365;DHT22;41245;45.384;20.390;2023-02-01T08:24:03;204.80;2252.80
55365;DHT22;41245;45.384;20.390;2023-02-01T08:26:29;204.90;2252.80
55365;DHT22;41245;45.384;20.390;2023-02-01T08:28:57;205.00;2252.80
55365;DHT22;41245;45.384;20.390;2023-02-01T08:31:24;205.10;2252.80
55365;DHT22;41245;45.384;20.390;2023-02-01T08:33:53;205.30;2252.80
55365;DHT22;41245;45.384;20.390;2023-02-01T08:36:20;205.40;2252.80
55365;DHT22;41245;45.384;20.390;2023-02-01T08:38:46;205.60;2252.80
55365;DHT22;41245;45.384;20.390;2023-02-01T08:41:17;205.70;2252.80
55365;DHT22;41245;45.384;20.390;2023-02-01T08:43:44;230.40;2252.80
55365;DHT22;41245;45.384;20.390;2023-02-01T08:46:11;230.60;2252.80
55365;DHT22;41245;45.384;20.390;2023-02-01T08:48:37;230.70;2252.80
55365;DHT22;41245;45.384;20.390;2023-02-01T08:51:05;230.70;2252.80
55365;DHT22;41245;45.384;20.390;2023-02-01T08:53:31;231.00;2252.80
55365;DHT22;41245;45.384;20.390;2023-02-01T08:55:57;231.20;2252.80
55365;DHT22;41245;45.384;20.390;2023-02-01T08:58:23;231.30;2252.80
55365;DHT22;41245;45.384;20.390;2023-02-01T09:00:48;256.00;2252.80
55365;DHT22;41245;45.384;20.390;2023-02-01T09:03:15;231.30;2252.80
55365;DHT22;41245;45.384;20.390;2023-02-01T09:05:41;256.00;2252.80
55365;DHT22;41245;45.384;20.390;2023-02-01T09:08:07;256.20;2252.80
55365;DHT22;41245;45.384;20.390;2023-02-01T09:10:34;256.50;2252.80
55365;DHT22;41245;45.384;20.390;2023-02-01T09:13:00;256.50;2252.80
55365;DHT22;41245;45.384;20.390;2023-02-01T09:15:25;256.40;2252.80
55365;DHT22;41245;45.384;20.390;2023-02-01T09:17:51;256.30;2252.80
55365;DHT22;41245;45.384;20.390;2023-02-01T09:20:17;256.30;2252.80
55365;DHT22;41245;45.384;20.390;2023-02-01T09:22:44;256.30;2252.80
55365;DHT22;41245;45.384;20.390;2023-02-01T09:25:10;256.30;2252.80
55365;DHT22;41245;45.384;20.390;2023-02-01T09:27:35;256.30;2252.80
55365;DHT22;41245;45.384;20.390;2023-02-01T09:30:02;256.30;2252.80
55365;DHT22;41245;45.384;20.390;2023-02-01T09:32:28;256.30;2252.80
55365;DHT22;41245;45.384;20.390;2023-02-01T09:34:54;256.50;2252.80
55365;DHT22;41245;45.384;20.390;2023-02-01T09:37:20;256.60;2252.80
55365;DHT22;41245;45.384;20.390;2023-02-01T09:39:45;256.50;2252.80
55365;DHT22;41245;45.384;20.390;2023-02-01T09:47:31;256.70;2252.80
55365;DHT22;41245;45.384;20.390;2023-02-01T09:58:04;281.60;2278.40
55365;DHT22;41245;45.384;20.390;2023-02-01T10:00:36;256.90;2252.80
55365;DHT22;41245;45.384;20.390;2023-02-01T10:08:10;281.90;2278.40
55365;DHT22;41245;45.384;20.390;2023-02-01T10:10:46;281.90;2278.40
55365;DHT22;41245;45.384;20.390;2023-02-01T10:19:16;282.00;2278.40
55365;DHT22;41245;45.384;20.390;2023-02-01T10:21:58;282.10;2278.40
55365;DHT22;41245;45.384;20.390;2023-02-01T10:24:40;282.10;2278.40
55365;DHT22;41245;45.384;20.390;2023-02-01T10:27:19;282.30;2278.40
55365;DHT22;41245;45.384;20.390;2023-02-01T10:29:52;282.40;2278.40
55365;DHT22;41245;45.384;20.390;2023-02-01T10:32:27;282.40;2278.40
55365;DHT22;41245;45.384;20.390;2023-02-01T10:34:59;282.40;2278.40
55365;DHT22;41245;45.384;20.390;2023-02-01T10:37:31;282.40;2278.40
55365;DHT22;41245;45.384;20.390;2023-02-01T10:40:00;282.30;2278.40
55365;DHT22;41245;45.384;20.390;2023-02-01T10:42:28;282.40;2278.40
55365;DHT22;41245;45.384;20.390;2023-02-01T10:44:58;282.30;2278.40
55365;DHT22;41245;45.384;20.390;2023-02-01T10:47:25;282.40;2278.40
55365;DHT22;41245;45.384;20.390;2023-02-01T10:53:03;282.30;2278.40
55365;DHT22;41245;45.384;20.390;2023-02-01T11:00:53;282.10;2278.40
55365;DHT22;41245;45.384;20.390;2023-02-01T11:14:32;307.20;2304.00
55365;DHT22;41245;45.384;20.390;2023-02-01T11:17:01;307.20;2304.00
55365;DHT22;41245;45.384;20.390;2023-02-01T11:19:28;307.20;2304.00
55365;DHT22;41245;45.384;20.390;2023-02-01T11:21:57;307.30;2304.00
55365;DHT22;41245;45.384;20.390;2023-02-01T11:24:27;307.40;2304.00
55365;DHT22;41245;45.384;20.390;2023-02-01T11:26:58;307.40;2304.00
55365;DHT22;41245;45.384;20.390;2023-02-01T11:29:25;307.70;2304.00
55365;DHT22;41245;45.384;20.390;2023-02-01T11:39:28;308.00;2304.00
55365;DHT22;41245;45.384;20.390;2023-02-01T11:42:13;308.00;2304.00
55365;DHT22;41245;45.384;20.390;2023-02-01T11:44:41;307.90;2304.00
55365;DHT22;41245;45.384;20.390;2023-02-01T11:47:28;308.00;2304.00
55365;DHT22;41245;45.384;20.390;2023-02-01T11:49:59;308.00;2304.00
55365;DHT22;41245;45.384;20.390;2023-02-01T12:06:33;308.00;2304.00
55365;DHT22;41245;45.384;20.390;2023-02-01T12:12:08;307.80;2304.00
55365;DHT22;41245;45.384;20.390;2023-02-01T12:18:05;307.80;2304.00
55365;DHT22;41245;45.384;20.390;2023-02-01T12:29:40;307.30;2304.00
55365;DHT22;41245;45.384;20.390;2023-02-01T12:43:09;307.30;2304.00
55365;DHT22;41245;45.384;20.390;2023-02-01T12:45:40;307.40;2304.00
55365;DHT22;41245;45.384;20.390;2023-02-01T12:51:36;308.00;2304.00
55365;DHT22;41245;45.384;20.390;2023-02-01T12:54:37;332.80;2329.60
55365;DHT22;41245;45.384;20.390;2023-02-01T12:57:11;332.90;2329.60
55365;DHT22;41245;45.384;20.390;2023-02-01T13:02:41;333.20;2329.60
55365;DHT22;41245;45.384;20.390;2023-02-01T13:05:32;333.10;1945.60
55365;DHT22;41245;45.384;20.390;2023-02-01T13:08:10;333.10;2329.60
55365;DHT22;41245;45.384;20.390;2023-02-01T13:16:16;333.10;1996.80
55365;DHT22;41245;45.384;20.390;2023-02-01T13:18:46;333.20;2329.60
55365;DHT22;41245;45.384;20.390;2023-02-01T13:21:24;333.20;2329.60
55365;DHT22;41245;45.384;20.390;2023-02-01T13:23:52;333.20;1971.20
55365;DHT22;41245;45.384;20.390;2023-02-01T13:26:18;333.10;1945.60
55365;DHT22;41245;45.384;20.390;2023-02-01T13:28:48;308.10;2304.00
55365;DHT22;41245;45.384;20.390;2023-02-01T13:45:23;307.30;2304.00
55365;DHT22;41245;45.384;20.390;2023-02-01T13:47:53;307.20;2304.00
55365;DHT22;41245;45.384;20.390;2023-02-01T13:50:27;307.20;2304.00
55365;DHT22;41245;45.384;20.390;2023-02-01T13:53:00;282.50;2278.40
55365;DHT22;41245;45.384;20.390;2023-02-01T13:55:36;282.50;2278.40
55365;DHT22;41245;45.384;20.390;2023-02-01T13:58:03;282.40;2278.40
55365;DHT22;41245;45.384;20.390;2023-02-01T14:00:38;282.50;2278.40
55365;DHT22;41245;45.384;20.390;2023-02-01T14:03:16;307.20;2304.00
55365;DHT22;41245;45.384;20.390;2023-02-01T14:08:23;307.40;2304.00
55365;DHT22;41245;45.384;20.390;2023-02-01T14:10:55;307.30;2304.00
55365;DHT22;41245;45.384;20.390;2023-02-01T14:23:42;307.40;2304.00
55365;DHT22;41245;45.384;20.390;2023-02-01T14:26:14;307.20;2304.00
55365;DHT22;41245;45.384;20.390;2023-02-01T14:37:06;307.30;2304.00
55365;DHT22;41245;45.384;20.390;2023-02-01T14:42:22;307.30;2304.00
55365;DHT22;41245;45.384;20.390;2023-02-01T14:44:51;307.30;2304.00
55365;DHT22;41245;45.384;20.390;2023-02-01T14:52:20;307.40;2304.00
55365;DHT22;41245;45.384;20.390;2023-02-01T14:54:53;307.30;2304.00
55365;DHT22;41245;45.384;20.390;2023-02-01T14:57:21;307.40;2304.00
55365;DHT22;41245;45.384;20.390;2023-02-01T14:59:59;307.30;2304.00
55365;DHT22;41245;45.384;20.390;2023-02-01T15:02:26;307.30;2304.00
55365;DHT22;41245;45.384;20.390;2023-02-01T15:04:56;307.20;2304.00
55365;DHT22;41245;45.384;20.390;2023-02-01T15:07:23;282.40;2278.40
55365;DHT22;41245;45.384;20.390;2023-02-01T15:09:50;282.40;2278.40
55365;DHT22;41245;45.384;20.390;2023-02-01T15:12:22;282.30;2278.40
55365;DHT22;41245;45.384;20.390;2023-02-01T15:15:12;282.20;2278.40
55365;DHT22;41245;45.384;20.390;2023-02-01T15:17:38;282.10;2278.40
55365;DHT22;41245;45.384;20.390;2023-02-01T15:20:16;282.10;2278.40
55365;DHT22;41245;45.384;20.390;2023-02-01T15:22:52;282.10;2278.40
55365;DHT22;41245;45.384;20.390;2023-02-01T15:25:21;282.10;2278.40
55365;DHT22;41245;45.384;20.390;2023-02-01T15:27:47;282.00;2278.40
55365;DHT22;41245;45.384;20.390;2023-02-01T15:32:44;281.80;2278.40
55365;DHT22;41245;45.384;20.390;2023-02-01T15:35:35;281.70;2278.40
55365;DHT22;41245;45.384;20.390;2023-02-01T15:43:29;281.70;2278.40
55365;DHT22;41245;45.384;20.390;2023-02-01T15:45:58;281.60;2278.40
55365;DHT22;41245;45.384;20.390;2023-02-01T15:48:26;281.60;2278.40
55365;DHT22;41245;45.384;20.390;2023-02-01T15:50:53;256.90;2252.80
55365;DHT22;41245;45.384;20.390;2023-02-01T15:53:23;256.80;2252.80
55365;DHT22;41245;45.384;20.390;2023-02-01T15:55:53;256.70;2252.80
55365;DHT22;41245;45.384;20.390;2023-02-01T15:58:21;256.60;2252.80
55365;DHT22;41245;45.384;20.390;2023-02-01T16:00:56;256.50;2252.80
55365;DHT22;41245;45.384;20.390;2023-02-01T16:03:40;256.50;2252.80
55365;DHT22;41245;45.384;20.390;2023-02-01T16:06:28;256.50;2252.80
55365;DHT22;41245;45.384;20.390;2023-02-01T16:09:09;256.40;2252.80
55365;DHT22;41245;45.384;20.390;2023-02-01T16:11:46;256.40;2252.80
55365;DHT22;41245;45.384;20.390;2023-02-01T16:14:11;256.20;2252.80
55365;DHT22;41245;45.384;20.390;2023-02-01T16:16:37;256.20;2252.80
55365;DHT22;41245;45.384;20.390;2023-02-01T16:19:03;256.20;2252.80
55365;DHT22;41245;45.384;20.390;2023-02-01T16:21:28;256.20;2252.80
55365;DHT22;41245;45.384;20.390;2023-02-01T16:23:54;256.30;2252.80
55365;DHT22;41245;45.384;20.390;2023-02-01T16:26:20;256.20;2252.80
55365;DHT22;41245;45.384;20.390;2023-02-01T16:28:46;256.30;2252.80
55365;DHT22;41245;45.384;20.390;2023-02-01T16:31:15;256.20;2252.80
55365;DHT22;41245;45.384;20.390;2023-02-01T16:33:46;256.30;2252.80
55365;DHT22;41245;45.384;20.390;2023-02-01T16:36:12;256.20;2252.80
55365;DHT22;41245;45.384;20.390;2023-02-01T16:38:39;256.10;2252.80
55365;DHT22;41245;45.384;20.390;2023-02-01T16:41:05;256.10;2252.80
55365;DHT22;41245;45.384;20.390;2023-02-01T16:43:31;231.30;2252.80
55365;DHT22;41245;45.384;20.390;2023-02-01T16:46:00;231.20;2252.80
55365;DHT22;41245;45.384;20.390;2023-02-01T16:48:31;231.10;2252.80
55365;DHT22;41245;45.384;20.390;2023-02-01T16:58:20;205.30;2252.80
55365;DHT22;41245;45.384;20.390;2023-02-01T17:00:47;205.30;2252.80
55365;DHT22;41245;45.384;20.390;2023-02-01T17:03:14;180.00;2252.80
55365;DHT22;41245;45.384;20.390;2023-02-01T17:05:43;179.80;2252.80
55365;DHT22;41245;45.384;20.390;2023-02-01T17:08:13;179.70;2252.80
55365;DHT22;41245;45.384;20.390;2023-02-01T17:10:41;179.50;6502.40
55365;DHT22;41245;45.384;20.390;2023-02-01T17:13:12;179.30;2252.80
55365;DHT22;41245;45.384;20.390;2023-02-01T18:51:18;230.80;2252.80
55365;DHT22;41245;45.384;20.390;2023-02-01T18:53:44;230.80;2252.80
55365;DHT22;41245;45.384;20.390;2023-02-01T18:56:11;230.80;2252.80
55365;DHT22;41245;45.384;20.390;2023-02-01T18:58:37;230.50;2252.80
55365;DHT22;41245;45.384;20.390;2023-02-01T19:01:10;230.70;2252.80
55365;DHT22;41245;45.384;20.390;2023-02-01T19:03:37;231.20;2252.80
55365;DHT22;41245;45.384;20.390;2023-02-01T19:06:04;256.00;2252.80
55365;DHT22;41245;45.384;20.390;2023-02-01T20:02:17;204.80;2252.80
55365;DHT22;41245;45.384;20.390;2023-02-01T20:41:29;179.40;2252.80
55365;DHT22;41245;45.384;20.390;2023-02-01T20:56:08;154.50;2252.80
55365;DHT22;41245;45.384;20.390;2023-02-01T20:58:34;154.50;2252.80
55365;DHT22;41245;45.384;20.390;2023-02-01T21:01:00;154.20;2252.80
